createdAt,value
2023-04-28T00:00:58.250Z,47.16
2023-04-28T00:03:26.511Z,47.30
2023-04-28T00:05:53.821Z,47.55
2023-04-28T00:08:22.690Z,47.70
2023-04-28T00:10:49.713Z,47.78
2023-04-28T00:13:16.750Z,48.00
2023-04-28T00:15:43.753Z,48.11
2023-04-28T00:18:10.823Z,48.24
2023-04-28T00:20:37.844Z,48.43
2023-04-28T00:23:04.854Z,48.30
2023-04-28T00:25:32.010Z,48.30
2023-04-28T00:27:59.020Z,48.29
2023-04-28T00:30:26.196Z,48.54
2023-04-28T00:32:53.585Z,48.49
2023-04-28T00:35:20.798Z,48.76
2023-04-28T00:37:48.322Z,48.69
2023-04-28T00:40:15.555Z,48.22
2023-04-28T00:42:42.660Z,48.55
2023-04-28T00:45:10.142Z,48.14
2023-04-28T00:47:38.514Z,48.20
2023-04-28T00:50:06.820Z,48.08
2023-04-28T00:52:33.971Z,48.33
2023-04-28T00:55:01.097Z,48.22
2023-04-28T00:57:28.316Z,48.34
2023-04-28T00:59:55.527Z,48.45
2023-04-28T01:02:23.297Z,48.47
2023-04-28T01:04:51.450Z,48.45
2023-04-28T01:07:22.671Z,48.72
2023-04-28T01:09:49.750Z,48.66
2023-04-28T01:12:21.081Z,48.80
2023-04-28T01:14:52.404Z,48.68
2023-04-28T01:17:19.550Z,48.73
2023-04-28T01:19:47.226Z,48.93
2023-04-28T01:22:16.729Z,48.86
2023-04-28T01:24:44.610Z,48.92
2023-04-28T01:27:13.932Z,48.96
2023-04-28T01:29:42.264Z,49.18
2023-04-28T01:32:09.255Z,49.04
2023-04-28T01:34:36.251Z,49.10
2023-04-28T01:37:06.218Z,49.00
2023-04-28T01:39:33.475Z,49.20
2023-04-28T01:42:01.029Z,49.26
2023-04-28T01:44:28.636Z,49.02
2023-04-28T01:46:56.019Z,49.12
2023-04-28T01:49:23.149Z,49.25
2023-04-28T01:51:50.343Z,49.17
2023-04-28T01:54:17.492Z,49.38
2023-04-28T01:56:44.658Z,49.41
2023-04-28T01:59:15.392Z,49.55
2023-04-28T02:01:43.561Z,49.63
2023-04-28T02:04:12.778Z,49.44
2023-04-28T02:06:41.483Z,49.46
2023-04-28T02:09:08.545Z,49.27
2023-04-28T02:11:35.593Z,49.47
2023-04-28T02:14:03.356Z,49.59
2023-04-28T02:16:30.796Z,49.39
2023-04-28T02:18:57.876Z,49.78
2023-04-28T02:21:28.870Z,49.70
2023-04-28T02:23:56.320Z,49.84
2023-04-28T02:26:24.776Z,49.78
2023-04-28T02:28:52.454Z,49.68
2023-04-28T02:31:19.573Z,49.84
2023-04-28T02:33:46.859Z,49.86
2023-04-28T02:36:14.421Z,49.99
2023-04-28T02:38:41.946Z,50.11
2023-04-28T02:41:14.812Z,50.12
2023-04-28T02:43:42.506Z,49.96
2023-04-28T02:46:10.001Z,50.12
2023-04-28T02:48:39.361Z,50.08
2023-04-28T02:51:08.148Z,50.15
2023-04-28T02:53:36.105Z,50.12
2023-04-28T02:56:05.289Z,50.45
2023-04-28T02:58:33.703Z,50.15
2023-04-28T03:01:01.711Z,50.35
2023-04-28T03:03:28.955Z,50.29
2023-04-28T03:05:57.250Z,50.40
2023-04-28T03:08:24.399Z,50.51
2023-04-28T03:10:51.429Z,50.48
2023-04-28T03:13:20.941Z,50.49
2023-04-28T03:15:48.802Z,50.46
2023-04-28T03:18:19.730Z,50.57
2023-04-28T03:20:46.729Z,50.56
2023-04-28T03:23:13.954Z,50.61
2023-04-28T03:25:41.486Z,50.72
2023-04-28T03:28:08.547Z,50.56
2023-04-28T03:30:36.528Z,50.65
2023-04-28T03:33:06.137Z,50.89
2023-04-28T03:35:33.303Z,50.74
2023-04-28T03:38:00.248Z,50.99
2023-04-28T03:40:28.208Z,50.89
2023-04-28T03:43:15.265Z,50.96
2023-04-28T03:45:59.298Z,50.67
2023-04-28T03:48:26.869Z,50.68
2023-04-28T03:50:54.498Z,50.81
2023-04-28T03:53:26.253Z,50.99
2023-04-28T03:55:53.744Z,51.11
2023-04-28T03:58:21.396Z,51.11
2023-04-28T04:00:48.409Z,51.43
2023-04-28T04:03:15.603Z,51.39
2023-04-28T04:05:44.441Z,51.36
2023-04-28T04:08:12.639Z,51.52
2023-04-28T04:10:39.611Z,51.39
2023-04-28T04:13:08.703Z,51.74
2023-04-28T04:15:36.009Z,51.85
2023-04-28T04:18:04.397Z,51.74
2023-04-28T04:20:47.009Z,51.83
2023-04-28T04:23:14.873Z,51.88
2023-04-28T04:25:42.965Z,52.24
2023-04-28T04:28:10.891Z,52.23
2023-04-28T04:30:38.024Z,52.28
2023-04-28T04:33:05.310Z,52.22
2023-04-28T04:35:33.906Z,52.63
2023-04-28T04:38:01.665Z,52.30
2023-04-28T04:40:29.144Z,52.15
2023-04-28T04:42:56.786Z,52.06
2023-04-28T04:45:27.936Z,51.80
2023-04-28T04:47:56.470Z,51.88
2023-04-28T04:50:24.710Z,51.94
2023-04-28T04:52:54.808Z,51.88
2023-04-28T04:55:23.737Z,51.58
2023-04-28T04:57:52.687Z,51.63
2023-04-28T05:00:28.544Z,51.45
2023-04-28T05:02:56.363Z,51.76
2023-04-28T05:05:24.016Z,51.72
2023-04-28T05:08:03.995Z,51.52
2023-04-28T05:10:33.069Z,51.74
2023-04-28T05:13:01.032Z,51.84
2023-04-28T05:15:28.365Z,52.00
2023-04-28T05:18:14.466Z,52.23
2023-04-28T05:20:42.303Z,52.32
2023-04-28T05:23:09.820Z,52.15
2023-04-28T05:25:37.732Z,52.14
2023-04-28T05:28:07.857Z,52.53
2023-04-28T05:30:35.099Z,52.42
2023-04-28T05:33:03.242Z,52.49
2023-04-28T05:35:31.831Z,52.15
2023-04-28T05:37:59.681Z,52.26
2023-04-28T05:40:27.123Z,52.20
2023-04-28T05:42:55.695Z,52.07
2023-04-28T05:45:22.785Z,52.14
2023-04-28T05:47:50.373Z,52.01
2023-04-28T05:50:19.015Z,51.94
2023-04-28T05:52:46.075Z,52.12
2023-04-28T05:55:13.749Z,51.95
2023-04-28T05:57:51.894Z,52.00
2023-04-28T06:00:22.083Z,51.93
2023-04-28T06:02:50.087Z,51.90
2023-04-28T06:05:18.351Z,52.00
2023-04-28T06:07:49.715Z,51.65
2023-04-28T06:10:17.318Z,51.79
2023-04-28T06:12:44.534Z,51.70
2023-04-28T06:15:11.964Z,51.63
2023-04-28T06:17:39.867Z,51.52
2023-04-28T06:20:08.317Z,51.70
2023-04-28T06:22:35.379Z,51.62
2023-04-28T06:25:02.371Z,51.54
2023-04-28T06:27:49.733Z,51.58
2023-04-28T06:30:20.717Z,51.64
2023-04-28T06:32:48.018Z,51.95
2023-04-28T06:35:16.826Z,52.02
2023-04-28T06:37:44.221Z,52.16
2023-04-28T06:40:11.940Z,52.06
2023-04-28T06:42:43.347Z,52.09
2023-04-28T06:45:12.539Z,52.21
2023-04-28T06:47:40.956Z,52.45
2023-04-28T06:50:10.063Z,52.38
2023-04-28T06:52:39.907Z,52.08
2023-04-28T06:55:11.001Z,52.29
2023-04-28T06:57:42.681Z,52.23
2023-04-28T07:00:10.905Z,52.18
2023-04-28T07:02:38.355Z,52.04
2023-04-28T07:05:05.880Z,52.17
2023-04-28T07:07:34.201Z,52.31
2023-04-28T07:10:04.236Z,52.40
2023-04-28T07:12:31.341Z,52.32
2023-04-28T07:15:10.624Z,52.09
2023-04-28T07:17:38.524Z,52.13
2023-04-28T07:20:07.185Z,52.14
2023-04-28T07:22:35.185Z,52.12
2023-04-28T07:25:02.291Z,52.24
2023-04-28T07:27:29.321Z,52.06
2023-04-28T07:29:59.104Z,52.30
2023-04-28T07:32:26.315Z,52.25
2023-04-28T07:34:54.392Z,52.46
2023-04-28T07:37:21.364Z,52.46
2023-04-28T07:39:48.929Z,52.44
2023-04-28T07:42:15.997Z,52.48
2023-04-28T07:44:43.000Z,52.66
2023-04-28T07:47:11.056Z,52.97
2023-04-28T07:49:38.921Z,53.08
2023-04-28T07:52:05.951Z,52.93
2023-04-28T07:54:33.214Z,53.17
2023-04-28T07:57:01.651Z,53.17
2023-04-28T07:59:28.853Z,53.54
2023-04-28T08:01:58.549Z,53.55
2023-04-28T08:04:26.054Z,53.69
2023-04-28T08:06:54.068Z,53.86
2023-04-28T08:09:21.083Z,54.36
2023-04-28T08:11:47.962Z,54.47
2023-04-28T08:14:15.063Z,54.83
2023-04-28T08:16:42.314Z,55.05
2023-04-28T08:19:10.611Z,55.16
2023-04-28T08:21:37.649Z,55.31
2023-04-28T08:24:05.064Z,55.60
2023-04-28T08:26:32.880Z,55.86
2023-04-28T08:29:00.329Z,56.26
2023-04-28T08:31:27.327Z,56.62
2023-04-28T08:33:55.612Z,56.90
2023-04-28T08:36:23.930Z,57.36
2023-04-28T08:38:51.035Z,57.18
2023-04-28T08:41:19.588Z,57.15
2023-04-28T08:43:46.736Z,57.08
2023-04-28T08:46:15.044Z,57.47
2023-04-28T08:48:45.333Z,57.52
2023-04-28T08:51:29.027Z,57.85
2023-04-28T08:54:29.368Z,57.93
2023-04-28T08:56:46.191Z,57.90
2023-04-28T08:59:13.571Z,57.85
2023-04-28T09:01:40.612Z,58.02
2023-04-28T09:04:09.024Z,58.36
2023-04-28T09:06:38.828Z,58.40
2023-04-28T09:09:24.738Z,58.48
2023-04-28T09:12:16.668Z,58.62
2023-04-28T09:14:44.108Z,58.47
2023-04-28T09:17:13.463Z,58.72
2023-04-28T09:19:43.192Z,58.93
2023-04-28T09:22:25.684Z,59.13
2023-04-28T09:24:55.581Z,59.34
2023-04-28T09:27:28.429Z,59.36
2023-04-28T09:29:55.747Z,59.33
2023-04-28T09:32:24.096Z,59.39
2023-04-28T09:34:57.235Z,59.45
2023-04-28T09:37:31.647Z,59.19
2023-04-28T09:40:06.019Z,59.54
2023-04-28T09:42:46.896Z,59.60
2023-04-28T09:45:15.734Z,59.64
2023-04-28T09:47:45.304Z,59.79
2023-04-28T09:50:17.899Z,59.79
2023-04-28T09:52:57.012Z,59.68
2023-04-28T09:55:24.699Z,60.55
2023-04-28T09:57:55.803Z,61.19
2023-04-28T10:00:23.645Z,61.40
2023-04-28T10:02:52.937Z,61.50
2023-04-28T10:05:23.785Z,61.28
2023-04-28T10:07:54.268Z,61.05
2023-04-28T10:10:22.030Z,60.85
2023-04-28T10:12:49.120Z,60.92
2023-04-28T10:15:17.616Z,61.01
2023-04-28T10:17:48.334Z,61.10
2023-04-28T10:20:16.994Z,61.11
2023-04-28T10:22:59.588Z,60.97
2023-04-28T10:25:30.205Z,61.01
2023-04-28T10:27:58.860Z,60.81
2023-04-28T10:30:30.293Z,60.74
2023-04-28T10:33:06.914Z,60.70
2023-04-28T10:35:36.542Z,61.00
2023-04-28T10:38:09.894Z,61.30
2023-04-28T10:41:03.591Z,61.22
2023-04-28T10:43:36.123Z,61.07
2023-04-28T10:46:06.505Z,61.26
2023-04-28T10:48:36.644Z,61.27
2023-04-28T10:51:04.776Z,61.43
2023-04-28T10:53:44.628Z,61.69
2023-04-28T10:56:25.657Z,61.75
2023-04-28T10:58:57.314Z,61.86
2023-04-28T11:01:26.172Z,61.89
2023-04-28T11:04:05.370Z,62.14
2023-04-28T11:06:35.786Z,62.15
2023-04-28T11:09:35.473Z,62.47
2023-04-28T11:12:08.703Z,62.50
2023-04-28T11:14:37.394Z,62.77
2023-04-28T11:17:05.474Z,62.86
2023-04-28T11:19:34.431Z,62.99
2023-04-28T11:22:03.813Z,62.95
2023-04-28T11:24:33.268Z,63.19
2023-04-28T11:27:01.235Z,63.60
2023-04-28T11:29:33.828Z,63.59
2023-04-28T11:32:00.964Z,63.70
2023-04-28T11:34:30.980Z,63.81
2023-04-28T11:36:59.893Z,63.90
2023-04-28T11:39:34.232Z,63.72
2023-04-28T11:42:11.082Z,64.13
2023-04-28T11:44:38.347Z,64.16
2023-04-28T11:47:07.631Z,63.98
2023-04-28T11:49:47.916Z,64.18
2023-04-28T11:52:14.884Z,64.39
2023-04-28T11:54:43.821Z,64.56
2023-04-28T11:57:23.704Z,64.68
2023-04-28T11:59:52.065Z,64.71
2023-04-28T12:02:31.630Z,64.62
2023-04-28T12:05:07.873Z,64.71
2023-04-28T12:07:45.823Z,64.52
2023-04-28T12:10:19.018Z,64.48
2023-04-28T12:12:52.413Z,64.48
2023-04-28T12:15:22.760Z,64.74
2023-04-28T12:17:52.603Z,64.75
2023-04-28T12:20:37.564Z,64.99
2023-04-28T12:23:06.804Z,64.90
2023-04-28T12:25:35.504Z,65.06
2023-04-28T12:28:08.618Z,64.95
2023-04-28T12:30:58.819Z,65.05
2023-04-28T12:33:29.206Z,64.65
2023-04-28T12:35:58.132Z,64.75
2023-04-28T12:38:25.431Z,64.84
2023-04-28T12:40:53.994Z,64.87
2023-04-28T12:43:23.661Z,64.87
2023-04-28T12:45:53.698Z,64.94
2023-04-28T12:48:21.385Z,64.90
2023-04-28T12:50:48.390Z,64.91
2023-04-28T12:53:15.705Z,64.92
2023-04-28T12:55:42.776Z,65.05
2023-04-28T12:58:10.040Z,65.01
2023-04-28T13:00:36.975Z,64.87
2023-04-28T13:03:04.154Z,65.03
2023-04-28T13:05:33.015Z,65.30
2023-04-28T13:08:00.704Z,65.27
2023-04-28T13:10:27.847Z,65.20
2023-04-28T13:12:54.852Z,65.30
2023-04-28T13:15:21.818Z,65.31
2023-04-28T13:17:50.027Z,65.54
2023-04-28T13:20:18.049Z,65.61
2023-04-28T13:22:45.630Z,65.64
2023-04-28T13:25:12.621Z,65.93
2023-04-28T13:27:42.696Z,65.97
2023-04-28T13:30:11.304Z,66.15
2023-04-28T13:32:38.455Z,66.18
2023-04-28T13:35:07.456Z,66.35
2023-04-28T13:37:35.693Z,66.48
2023-04-28T13:40:04.552Z,66.29
2023-04-28T13:42:31.633Z,66.51
2023-04-28T13:44:58.484Z,66.46
2023-04-28T13:47:26.990Z,66.48
2023-04-28T13:49:53.867Z,66.52
2023-04-28T13:52:21.193Z,66.47
2023-04-28T13:54:48.600Z,66.73
2023-04-28T13:57:16.022Z,66.58
2023-04-28T13:59:43.364Z,66.76
2023-04-28T14:02:11.890Z,66.67
2023-04-28T14:04:39.085Z,66.72
2023-04-28T14:07:06.166Z,66.74
2023-04-28T14:09:33.668Z,66.80
2023-04-28T14:12:00.609Z,67.00
2023-04-28T14:14:27.453Z,66.99
2023-04-28T14:16:54.854Z,67.00
2023-04-28T14:19:22.836Z,66.96
2023-04-28T14:21:49.924Z,67.06
2023-04-28T14:24:16.763Z,67.04
2023-04-28T14:26:44.897Z,67.03
2023-04-28T14:29:12.055Z,67.18
2023-04-28T14:31:39.923Z,67.13
2023-04-28T14:34:07.506Z,67.01
2023-04-28T14:36:34.650Z,67.34
2023-04-28T14:39:01.969Z,67.27
2023-04-28T14:41:29.100Z,67.42
2023-04-28T14:43:56.947Z,67.30
2023-04-28T14:46:24.489Z,67.24
2023-04-28T14:48:52.682Z,67.32
2023-04-28T14:51:19.605Z,67.40
2023-04-28T14:53:47.431Z,67.29
2023-04-28T14:56:19.014Z,67.41
2023-04-28T14:58:47.777Z,67.56
2023-04-28T15:01:15.031Z,67.44
2023-04-28T15:03:42.978Z,67.72
2023-04-28T15:06:10.957Z,67.42
2023-04-28T15:08:38.361Z,67.30
2023-04-28T15:11:05.453Z,67.11
2023-04-28T15:13:32.494Z,67.20
2023-04-28T15:15:59.517Z,67.36
2023-04-28T15:18:26.440Z,67.19
2023-04-28T15:20:53.740Z,67.36
2023-04-28T15:23:20.740Z,67.43
2023-04-28T15:25:50.124Z,67.68
2023-04-28T15:28:17.367Z,67.62
2023-04-28T15:30:44.287Z,67.66
2023-04-28T15:33:17.759Z,67.87
2023-04-28T15:35:45.000Z,67.99
2023-04-28T15:38:11.917Z,68.25
2023-04-28T15:40:40.778Z,68.23
2023-04-28T15:43:08.272Z,68.07
2023-04-28T15:45:35.294Z,68.07
2023-04-28T15:48:02.466Z,68.02
2023-04-28T15:50:30.469Z,68.25
2023-04-28T15:52:58.431Z,68.10
2023-04-28T15:55:25.990Z,68.19
2023-04-28T15:57:53.133Z,68.27
2023-04-28T16:00:20.192Z,68.09
2023-04-28T16:02:47.313Z,68.16
2023-04-28T16:05:14.881Z,68.27
2023-04-28T16:07:42.449Z,68.25
2023-04-28T16:10:14.805Z,68.22
2023-04-28T16:12:42.703Z,68.06
2023-04-28T16:15:11.559Z,68.11
2023-04-28T16:17:40.576Z,68.11
2023-04-28T16:20:10.320Z,68.04
2023-04-28T16:22:37.942Z,67.76
2023-04-28T16:25:05.604Z,67.95
2023-04-28T16:27:33.167Z,67.85
2023-04-28T16:30:01.924Z,67.75
2023-04-28T16:32:29.213Z,67.69
2023-04-28T16:34:57.683Z,67.67
2023-04-28T16:37:25.636Z,67.67
2023-04-28T16:39:52.933Z,67.69
2023-04-28T16:42:22.735Z,67.64
2023-04-28T16:44:52.755Z,67.36
2023-04-28T16:47:20.575Z,67.38
2023-04-28T16:49:48.307Z,67.37
2023-04-28T16:52:18.934Z,67.37
2023-04-28T16:54:46.349Z,67.31
2023-04-28T16:57:13.362Z,67.25
2023-04-28T16:59:40.358Z,67.20
2023-04-28T17:02:07.987Z,67.26
2023-04-28T17:04:35.427Z,67.30
2023-04-28T17:07:05.641Z,67.27
2023-04-28T17:09:34.404Z,67.19
2023-04-28T17:12:01.443Z,67.14
2023-04-28T17:14:28.759Z,67.08
2023-04-28T17:16:56.122Z,67.03
2023-04-28T17:19:23.276Z,66.93
2023-04-28T17:21:52.954Z,66.89
2023-04-28T17:24:19.855Z,66.74
2023-04-28T17:26:47.310Z,66.78
2023-04-28T17:29:14.824Z,66.69
2023-04-28T17:31:41.916Z,66.60
2023-04-28T17:34:08.973Z,66.81
2023-04-28T17:36:36.011Z,66.84
2023-04-28T17:39:05.061Z,66.90
2023-04-28T17:41:32.459Z,66.67
2023-04-28T17:43:59.739Z,66.63
2023-04-28T17:46:27.822Z,66.60
2023-04-28T17:48:54.873Z,66.57
2023-04-28T17:51:21.867Z,66.53
2023-04-28T17:53:49.054Z,66.69
2023-04-28T17:56:16.963Z,66.59
2023-04-28T17:58:44.025Z,66.54
2023-04-28T18:01:10.926Z,66.68
2023-04-28T18:03:39.196Z,66.87
2023-04-28T18:06:08.318Z,66.89
2023-04-28T18:08:37.351Z,66.90
2023-04-28T18:11:05.182Z,66.98
2023-04-28T18:13:33.580Z,67.00
2023-04-28T18:16:01.221Z,66.91
2023-04-28T18:18:30.283Z,67.01
2023-04-28T18:21:02.502Z,66.98
2023-04-28T18:23:30.771Z,66.84
2023-04-28T18:25:59.270Z,66.86
2023-04-28T18:28:26.316Z,66.96
2023-04-28T18:30:54.385Z,66.99
2023-04-28T18:33:23.387Z,67.01
2023-04-28T18:35:59.503Z,67.02
2023-04-28T18:38:28.019Z,66.93
2023-04-28T18:40:56.214Z,66.83
2023-04-28T18:43:26.881Z,67.03
2023-04-28T18:45:54.391Z,67.00
2023-04-28T18:48:21.963Z,67.04
2023-04-28T18:50:49.176Z,67.21
2023-04-28T18:53:16.152Z,67.18
2023-04-28T18:55:45.468Z,67.19
2023-04-28T18:58:12.466Z,67.12
2023-04-28T19:00:39.425Z,66.98
2023-04-28T19:03:06.963Z,67.26
2023-04-28T19:05:34.656Z,67.20
2023-04-28T19:08:01.634Z,67.20
2023-04-28T19:10:28.547Z,67.03
2023-04-28T19:12:56.281Z,67.19
2023-04-28T19:15:23.281Z,67.17
2023-04-28T19:17:51.497Z,67.21
2023-04-28T19:20:18.982Z,67.33
2023-04-28T19:22:49.520Z,67.33
2023-04-28T19:25:19.125Z,67.22
2023-04-28T19:27:46.273Z,67.20
2023-04-28T19:30:15.146Z,67.17
2023-04-28T19:32:42.459Z,67.25
2023-04-28T19:35:10.439Z,67.40
2023-04-28T19:37:37.913Z,67.42
2023-04-28T19:40:05.397Z,67.30
2023-04-28T19:42:38.885Z,67.21
2023-04-28T19:45:06.527Z,67.30
2023-04-28T19:47:35.117Z,67.29
2023-04-28T19:50:03.851Z,67.34
2023-04-28T19:52:31.152Z,67.18
2023-04-28T19:54:58.092Z,67.23
2023-04-28T19:57:27.853Z,67.27
2023-04-28T19:59:55.212Z,67.17
2023-04-28T20:02:22.513Z,67.17
2023-04-28T20:04:50.076Z,67.06
2023-04-28T20:07:18.565Z,66.91
2023-04-28T20:09:46.943Z,66.95
2023-04-28T20:12:15.383Z,67.00
2023-04-28T20:14:45.019Z,67.08
2023-04-28T20:17:12.005Z,67.16
2023-04-28T20:19:39.106Z,67.13
2023-04-28T20:25:16.144Z,67.02
2023-04-28T20:27:46.236Z,67.03
2023-04-28T20:30:14.436Z,67.08
2023-04-28T20:32:41.711Z,67.07
2023-04-28T20:35:09.465Z,67.08
2023-04-28T20:37:36.800Z,67.09
2023-04-28T20:40:05.278Z,67.21
2023-04-28T20:42:33.476Z,67.32
2023-04-28T20:45:00.480Z,67.33
2023-04-28T20:47:27.793Z,67.45
2023-04-28T20:49:55.931Z,67.39
2023-04-28T20:52:23.495Z,67.09
2023-04-28T20:54:51.774Z,67.36
2023-04-28T20:57:18.886Z,67.30
2023-04-28T20:59:46.364Z,67.24
2023-04-28T21:02:13.877Z,67.33
2023-04-28T21:04:41.033Z,67.22
2023-04-28T21:07:07.947Z,67.30
2023-04-28T21:09:36.070Z,67.35
2023-04-28T21:12:03.159Z,67.37
2023-04-28T21:14:30.369Z,67.28
2023-04-28T21:16:57.463Z,67.24
2023-04-28T21:19:24.416Z,67.18
2023-04-28T21:21:51.317Z,67.20
2023-04-28T21:24:18.251Z,67.32
2023-04-28T21:26:45.213Z,67.33
2023-04-28T21:29:12.395Z,67.22
2023-04-28T21:31:39.362Z,67.31
2023-04-28T21:34:06.755Z,67.31
2023-04-28T21:36:34.629Z,67.36
2023-04-28T21:39:02.071Z,67.37
2023-04-28T21:41:29.017Z,67.34
2023-04-28T21:43:56.171Z,67.42
2023-04-28T21:46:23.077Z,67.44
2023-04-28T21:48:49.943Z,67.43
2023-04-28T21:51:17.038Z,67.52
2023-04-28T21:53:43.942Z,67.45
2023-04-28T21:56:10.900Z,67.50
2023-04-28T21:58:37.784Z,67.63
2023-04-28T22:01:05.559Z,67.63
2023-04-28T22:03:35.570Z,67.82
2023-04-28T22:06:03.290Z,67.78
2023-04-28T22:08:31.074Z,67.97
2023-04-28T22:10:58.385Z,67.88
2023-04-28T22:13:25.367Z,67.97
2023-04-28T22:15:52.696Z,67.95
2023-04-28T22:18:19.740Z,67.85
2023-04-28T22:20:47.066Z,68.10
2023-04-28T22:23:14.184Z,68.33
2023-04-28T22:25:41.333Z,68.14
2023-04-28T22:28:08.221Z,68.27
2023-04-28T22:30:35.090Z,68.41
2023-04-28T22:33:02.118Z,68.35
2023-04-28T22:35:29.000Z,68.38
2023-04-28T22:37:56.037Z,68.33
2023-04-28T22:40:23.048Z,68.41
2023-04-28T22:42:49.896Z,68.57
2023-04-28T22:45:16.852Z,68.35
2023-04-28T22:47:43.733Z,68.37
2023-04-28T22:50:11.987Z,68.40
2023-04-28T22:52:39.217Z,68.33
2023-04-28T22:55:06.826Z,68.36
2023-04-28T22:57:33.924Z,68.34
2023-04-28T23:00:00.866Z,68.23
2023-04-28T23:02:28.164Z,68.24
2023-04-28T23:04:55.282Z,68.31
2023-04-28T23:07:22.305Z,68.15
2023-04-28T23:09:49.438Z,68.25
2023-04-28T23:12:16.683Z,68.21
2023-04-28T23:14:43.756Z,68.26
2023-04-28T23:17:11.031Z,68.26
2023-04-28T23:19:39.511Z,68.36
2023-04-28T23:22:07.926Z,68.45
2023-04-28T23:24:37.357Z,68.46
2023-04-28T23:27:04.930Z,68.24
2023-04-28T23:29:32.750Z,68.55
2023-04-28T23:31:59.797Z,68.51
2023-04-28T23:34:26.975Z,68.41
2023-04-28T23:36:53.924Z,68.40
2023-04-28T23:39:21.089Z,68.46
2023-04-28T23:41:48.156Z,68.46
2023-04-28T23:44:15.150Z,68.41
2023-04-28T23:46:42.043Z,68.37
2023-04-28T23:49:09.077Z,68.43
2023-04-28T23:51:36.235Z,68.33
2023-04-28T23:54:03.878Z,68.34
2023-04-28T23:56:31.634Z,68.57
2023-04-28T23:58:58.689Z,68.55
